Time;durP1;ratioP1;P1;durP2;ratioP2;P2;SDS_P1;SDS_P2;PMS_P1;PMS_P2;Temp;Humidity;BMP_temperature;BMP_pressure;BME280_temperature;BME280_humidity;BME280_pressure;Samples;Min_cycle;Max_cycle;Signal;HPM_P1;HPM_P2
2021/01/30 00:02:05;;;;;;;4.50;1.03;;;8.10;90.20;;;;;;5049861;28;20517;-73
2021/01/30 00:04:31;;;;;;;2.73;1.40;;;8.10;89.60;;;;;;5030498;28;20438;-73
2021/01/30 00:06:57;;;;;;;1.37;0.80;;;8.10;89.70;;;;;;5049873;28;20492;-74
2021/01/30 00:09:25;;;;;;;1.87;1.13;;;8.20;89.70;;;;;;5047953;28;20192;-74
2021/01/30 00:11:53;;;;;;;3.83;1.47;;;8.10;89.70;;;;;;5049266;28;20455;-74
2021/01/30 00:14:32;;;;;;;1.63;1.10;;;8.20;89.90;;;;;;5049073;28;20434;-73
2021/01/30 00:17:00;;;;;;;4.03;1.30;;;8.20;89.20;;;;;;5049082;28;20984;-74
2021/01/30 00:19:26;;;;;;;2.70;1.07;;;8.20;89.20;;;;;;5049947;28;20427;-73
2021/01/30 00:21:56;;;;;;;3.70;1.20;;;8.10;89.00;;;;;;5049413;28;20473;-75
2021/01/30 00:24:23;;;;;;;2.80;1.07;;;8.10;89.20;;;;;;5040229;28;20422;-74
2021/01/30 00:26:54;;;;;;;3.63;1.10;;;8.00;89.20;;;;;;5051011;28;20439;-73
2021/01/30 00:29:21;;;;;;;4.60;1.30;;;8.00;89.20;;;;;;5051845;28;20496;-72
2021/01/30 00:31:47;;;;;;;2.50;1.03;;;8.00;88.00;;;;;;5049648;28;21185;-74
2021/01/30 00:34:15;;;;;;;4.17;3.03;;;8.00;88.00;;;;;;5052071;28;20922;-72
2021/01/30 00:36:41;;;;;;;2.57;1.13;;;8.00;88.00;;;;;;5050935;28;20200;-74
2021/01/30 00:39:07;;;;;;;1.50;1.00;;;8.00;87.70;;;;;;5054501;28;20419;-73
2021/01/30 00:41:33;;;;;;;2.13;0.87;;;8.00;87.60;;;;;;5052627;28;20181;-72
2021/01/30 00:44:01;;;;;;;1.77;1.00;;;7.90;87.70;;;;;;5051085;28;20214;-73
2021/01/30 00:46:28;;;;;;;3.07;1.20;;;7.90;87.70;;;;;;5051624;28;20283;-72
2021/01/30 00:48:53;;;;;;;1.50;1.00;;;7.90;87.40;;;;;;5034977;28;20427;-72
2021/01/30 00:51:20;;;;;;;1.50;0.90;;;7.80;87.30;;;;;;5056952;28;20462;-71
2021/01/30 00:53:47;;;;;;;1.90;1.07;;;7.80;87.60;;;;;;5060930;28;20299;-72
2021/01/30 00:56:14;;;;;;;1.80;0.80;;;7.80;87.70;;;;;;5052962;28;20457;-72
2021/01/30 00:58:42;;;;;;;3.13;0.90;;;7.70;87.80;;;;;;5033935;28;20520;-71
2021/01/30 01:01:08;;;;;;;1.33;1.00;;;7.70;87.70;;;;;;5058692;28;20419;-72
2021/01/30 01:03:34;;;;;;;2.67;0.90;;;7.70;87.70;;;;;;5041122;28;20438;-72
2021/01/30 01:06:00;;;;;;;2.00;0.90;;;7.80;87.80;;;;;;5051305;28;20510;-73
2021/01/30 01:08:26;;;;;;;2.20;1.00;;;7.70;87.80;;;;;;5056316;28;20235;-72
2021/01/30 01:10:52;;;;;;;1.77;1.13;;;7.70;88.00;;;;;;5040324;28;20687;-72
2021/01/30 01:13:18;;;;;;;1.73;0.93;;;7.70;88.10;;;;;;5060292;28;20434;-73
2021/01/30 01:15:43;;;;;;;3.90;1.33;;;7.70;88.30;;;;;;5064532;28;20431;-73
2021/01/30 01:18:10;;;;;;;4.97;1.20;;;7.60;88.70;;;;;;5044991;28;20302;-72
2021/01/30 01:20:36;;;;;;;3.10;0.90;;;7.50;89.00;;;;;;5049422;28;20481;-72
2021/01/30 01:23:02;;;;;;;1.67;1.07;;;7.60;89.20;;;;;;5032450;28;20957;-72
2021/01/30 01:25:28;;;;;;;2.30;1.30;;;7.50;89.30;;;;;;5048643;28;20434;-73
2021/01/30 01:27:54;;;;;;;4.23;1.00;;;7.50;89.60;;;;;;5049774;28;20442;-72
2021/01/30 01:30:21;;;;;;;2.83;1.10;;;7.50;89.70;;;;;;5049467;28;20212;-72
2021/01/30 01:32:47;;;;;;;1.50;1.13;;;7.50;89.70;;;;;;5049470;28;20188;-72
2021/01/30 01:35:15;;;;;;;1.00;0.83;;;7.50;89.90;;;;;;5048900;28;20435;-71
2021/01/30 01:37:42;;;;;;;1.40;0.87;;;7.50;89.90;;;;;;5049806;28;20936;-74
2021/01/30 01:40:09;;;;;;;3.93;1.00;;;7.60;89.90;;;;;;5049661;28;20418;-72
2021/01/30 01:42:35;;;;;;;1.40;0.87;;;7.60;89.60;;;;;;5050621;28;20458;-72
2021/01/30 01:45:01;;;;;;;1.43;0.83;;;7.60;89.70;;;;;;5032612;28;20430;-73
2021/01/30 01:47:37;;;;;;;2.30;1.10;;;7.60;89.70;;;;;;5052310;28;20235;-72
2021/01/30 01:50:34;;;;;;;2.60;1.30;;;7.70;89.90;;;;;;5050702;28;20547;-71
2021/01/30 01:53:08;;;;;;;6.23;0.80;;;7.70;89.90;;;;;;5035736;28;20459;-73
2021/01/30 01:55:35;;;;;;;0.97;0.80;;;7.70;89.60;;;;;;5049053;28;20513;-71
2021/01/30 01:58:03;;;;;;;1.83;0.90;;;7.70;89.60;;;;;;5050485;28;20537;-72
2021/01/30 02:00:29;;;;;;;4.40;1.07;;;7.70;89.60;;;;;;5033134;28;20502;-71
2021/01/30 02:02:56;;;;;;;2.40;0.90;;;7.70;90.00;;;;;;5050627;28;20910;-71
2021/01/30 02:05:24;;;;;;;1.87;1.10;;;7.70;90.10;;;;;;5050578;28;20933;-71
2021/01/30 02:07:50;;;;;;;1.73;0.97;;;7.60;90.20;;;;;;5054379;28;20451;-72
2021/01/30 02:10:21;;;;;;;4.60;0.83;;;7.70;90.40;;;;;;5049399;28;20423;-71
2021/01/30 02:12:49;;;;;;;2.50;1.00;;;7.70;90.50;;;;;;5049280;28;20419;-72
2021/01/30 02:15:17;;;;;;;1.93;1.00;;;7.60;90.70;;;;;;5031473;28;20435;-72
2021/01/30 02:18:07;;;;;;;1.10;0.73;;;7.50;91.10;;;;;;5058212;28;20431;-71
2021/01/30 02:21:28;;;;;;;3.33;0.80;;;7.60;91.20;;;;;;5042248;28;20435;-70
2021/01/30 02:24:12;;;;;;;2.03;1.00;;;7.50;91.30;;;;;;4949307;29;20446;-71
2021/01/30 02:26:49;;;;;;;0.80;0.80;;;7.50;91.60;;;;;;4948341;29;20439;-72
2021/01/30 02:30:04;;;;;;;1.83;0.80;;;7.50;91.60;;;;;;4941041;29;20854;-72
2021/01/30 02:32:53;;;;;;;1.40;0.70;;;7.50;91.60;;;;;;4951896;28;20450;-72
2021/01/30 02:35:19;;;;;;;2.50;0.70;;;7.50;91.30;;;;;;4951237;29;20459;-72
2021/01/30 02:38:04;;;;;;;1.43;0.70;;;7.50;91.50;;;;;;4962402;28;20887;-72
2021/01/30 02:40:37;;;;;;;2.10;0.60;;;7.50;91.40;;;;;;4951781;29;20551;-72
2021/01/30 02:43:28;;;;;;;1.00;0.50;;;7.50;91.40;;;;;;4951847;29;20442;-71
2021/01/30 02:46:03;;;;;;;2.93;0.70;;;7.50;91.70;;;;;;4950627;29;20459;-72
2021/01/30 02:48:33;;;;;;;0.70;0.50;;;7.50;91.70;;;;;;4951627;29;20537;-72
2021/01/30 02:51:02;;;;;;;1.00;0.60;;;7.50;91.90;;;;;;4935244;29;20471;-71
2021/01/30 02:53:34;;;;;;;0.70;0.60;;;7.40;92.40;;;;;;4951969;29;20442;-72
2021/01/30 02:56:02;;;;;;;1.57;0.60;;;7.30;92.60;;;;;;4951092;29;20423;-72
2021/01/30 02:58:56;;;;;;;0.60;0.50;;;7.20;93.00;;;;;;4973836;28;20450;-72
2021/01/30 03:01:21;;;;;;;1.67;0.80;;;7.20;93.30;;;;;;5047534;28;20439;-71
2021/01/30 03:03:47;;;;;;;0.90;0.70;;;7.10;93.40;;;;;;5051702;28;20556;-72
2021/01/30 03:06:22;;;;;;;0.60;0.57;;;7.10;93.50;;;;;;5050755;28;20192;-71
2021/01/30 03:09:12;;;;;;;0.73;0.50;;;7.10;93.40;;;;;;5051595;28;20273;-71
2021/01/30 03:11:49;;;;;;;1.17;0.60;;;7.10;93.30;;;;;;5051284;28;20521;-71
2021/01/30 03:14:19;;;;;;;1.33;0.57;;;7.00;93.20;;;;;;5050587;28;20781;-71
2021/01/30 03:16:46;;;;;;;1.10;0.73;;;7.00;93.30;;;;;;5051663;28;20446;-71
2021/01/30 03:19:23;;;;;;;1.10;0.60;;;7.10;92.70;;;;;;5051353;28;20512;-71
2021/01/30 03:21:54;;;;;;;0.60;0.50;;;7.10;92.50;;;;;;5051355;28;20913;-70
2021/01/30 03:24:20;;;;;;;1.37;0.53;;;7.20;92.40;;;;;;5050830;28;20917;-70
2021/01/30 03:26:47;;;;;;;2.00;0.70;;;7.20;92.30;;;;;;5051924;28;20451;-72
2021/01/30 03:29:17;;;;;;;2.33;0.90;;;7.20;92.30;;;;;;5034722;28;20435;-71
2021/01/30 03:31:44;;;;;;;1.47;0.70;;;7.20;92.30;;;;;;5053778;28;20522;-71
2021/01/30 03:34:11;;;;;;;0.83;0.60;;;7.20;92.30;;;;;;5052090;28;20445;-72
2021/01/30 03:36:38;;;;;;;0.67;0.60;;;7.20;92.20;;;;;;5050782;28;20455;-70
2021/01/30 03:39:10;;;;;;;0.90;0.70;;;7.20;92.10;;;;;;5049766;28;20419;-72
2021/01/30 03:41:36;;;;;;;1.40;0.60;;;7.20;92.00;;;;;;5032871;28;20465;-71
2021/01/30 03:44:01;;;;;;;1.63;0.80;;;7.20;92.20;;;;;;5033221;28;20431;-72
2021/01/30 03:46:27;;;;;;;0.80;0.80;;;7.30;92.10;;;;;;5049598;28;20276;-71
2021/01/30 03:48:53;;;;;;;2.60;1.00;;;7.30;92.10;;;;;;5033075;28;20196;-70
2021/01/30 03:51:18;;;;;;;2.60;0.60;;;7.30;92.00;;;;;;5050298;28;20212;-71
2021/01/30 03:53:44;;;;;;;1.50;0.73;;;7.30;92.10;;;;;;5050651;28;20716;-72
2021/01/30 03:56:10;;;;;;;0.90;0.70;;;7.30;92.20;;;;;;5049793;28;20188;-71
2021/01/30 03:58:40;;;;;;;0.80;0.70;;;7.20;92.50;;;;;;5050918;28;20683;-71
2021/01/30 04:01:06;;;;;;;1.90;0.87;;;7.20;92.50;;;;;;5051630;28;20437;-71
2021/01/30 04:03:32;;;;;;;1.50;0.77;;;7.20;92.60;;;;;;5052613;28;20466;-71
2021/01/30 04:05:58;;;;;;;1.17;0.60;;;7.20;92.70;;;;;;5050097;28;20852;-71
2021/01/30 04:08:24;;;;;;;1.53;0.80;;;7.20;93.00;;;;;;5050747;28;20446;-71
2021/01/30 04:10:49;;;;;;;2.00;0.60;;;7.20;93.00;;;;;;5050381;28;20216;-71
2021/01/30 04:13:17;;;;;;;0.93;0.60;;;7.20;92.70;;;;;;5033270;28;20698;-71
2021/01/30 04:15:43;;;;;;;0.77;0.67;;;7.20;92.80;;;;;;5050360;28;20176;-71
2021/01/30 04:18:10;;;;;;;0.90;0.60;;;7.20;92.80;;;;;;5051740;28;20671;-71
2021/01/30 04:20:37;;;;;;;1.03;0.80;;;7.20;93.00;;;;;;5048468;28;20427;-72
2021/01/30 04:23:04;;;;;;;1.20;0.80;;;7.20;93.00;;;;;;5051970;28;20427;-70
2021/01/30 04:25:30;;;;;;;0.87;0.63;;;7.10;93.00;;;;;;5054504;28;20442;-72
2021/01/30 04:27:56;;;;;;;1.60;0.70;;;7.20;92.70;;;;;;5041940;28;20455;-71
2021/01/30 04:30:25;;;;;;;1.00;0.60;;;7.20;92.50;;;;;;5059473;28;20184;-71
2021/01/30 04:32:51;;;;;;;1.20;0.63;;;7.10;92.40;;;;;;5061756;28;20427;-72
2021/01/30 04:35:22;;;;;;;3.17;1.10;;;7.20;92.50;;;;;;5050495;28;20805;-71
2021/01/30 04:37:47;;;;;;;1.83;1.00;;;7.10;92.40;;;;;;5050244;28;20505;-71
2021/01/30 04:40:30;;;;;;;1.07;0.57;;;7.20;92.40;;;;;;5034813;28;20809;-70
2021/01/30 04:43:08;;;;;;;0.97;0.80;;;7.20;92.10;;;;;;5032108;28;20719;-71
2021/01/30 04:46:01;;;;;;;1.67;0.87;;;7.20;92.10;;;;;;5031336;28;20443;-70
2021/01/30 04:49:05;;;;;;;1.00;0.60;;;7.30;92.10;;;;;;5051482;28;20457;-71
2021/01/30 04:51:35;;;;;;;3.00;0.80;;;7.20;92.60;;;;;;5002764;28;20585;-71
2021/01/30 04:54:40;;;;;;;1.40;0.80;;;7.20;92.70;;;;;;5050374;28;21004;-70
2021/01/30 04:57:20;;;;;;;2.30;0.93;;;7.20;92.70;;;;;;5019389;28;20454;-71
2021/01/30 05:00:42;;;;;;;1.47;0.97;;;7.20;92.70;;;;;;5052365;28;20426;-72
2021/01/30 05:03:19;;;;;;;4.03;1.33;;;7.20;92.50;;;;;;4939990;29;20459;-71
2021/01/30 05:05:49;;;;;;;5.57;1.47;;;7.20;92.50;;;;;;5052954;28;20488;-71
2021/01/30 05:08:26;;;;;;;5.83;1.10;;;7.20;92.40;;;;;;5054582;28;20476;-71
2021/01/30 05:11:00;;;;;;;3.27;1.13;;;7.20;92.20;;;;;;5050911;28;20470;-71
2021/01/30 05:13:44;;;;;;;4.40;1.23;;;7.20;92.00;;;;;;5053554;28;20415;-71
2021/01/30 05:16:23;;;;;;;4.43;1.30;;;7.20;92.00;;;;;;5035372;28;20419;-71
2021/01/30 05:18:56;;;;;;;7.63;1.23;;;7.20;91.70;;;;;;5061677;28;20442;-71
2021/01/30 05:21:34;;;;;;;1.57;1.00;;;7.20;91.50;;;;;;5031925;28;20471;-72
2021/01/30 05:24:00;;;;;;;2.20;1.10;;;7.30;91.20;;;;;;5049083;28;20446;-71
2021/01/30 05:27:03;;;;;;;2.43;1.37;;;7.30;90.80;;;;;;5049244;28;21263;-71
2021/01/30 05:29:41;;;;;;;3.00;1.20;;;7.30;90.40;;;;;;5022205;28;20629;-72
2021/01/30 05:32:39;;;;;;;3.60;1.50;;;7.40;90.00;;;;;;5048522;28;20466;-71
2021/01/30 05:35:19;;;;;;;3.50;1.10;;;7.30;89.90;;;;;;4973230;28;20471;-70
2021/01/30 05:37:53;;;;;;;5.87;1.50;;;7.30;89.70;;;;;;5041630;28;21016;-72
2021/01/30 05:40:37;;;;;;;1.90;1.03;;;7.40;89.70;;;;;;5049091;28;20434;-72
2021/01/30 05:43:24;;;;;;;6.33;1.60;;;7.30;89.30;;;;;;5049434;28;20468;-71
2021/01/30 05:45:54;;;;;;;2.23;1.30;;;7.40;89.30;;;;;;5030314;28;20499;-71
2021/01/30 05:48:27;;;;;;;4.73;1.83;;;7.40;89.50;;;;;;5048813;28;20525;-71
2021/01/30 05:50:58;;;;;;;5.50;1.60;;;7.40;89.00;;;;;;5048564;28;20474;-72
2021/01/30 05:53:27;;;;;;;4.80;1.47;;;7.40;88.90;;;;;;5048619;28;20482;-71
2021/01/30 05:55:55;;;;;;;5.97;1.80;;;7.40;89.00;;;;;;5047646;28;20431;-71
2021/01/30 05:58:23;;;;;;;5.47;1.60;;;7.30;89.20;;;;;;5030761;28;20506;-72
2021/01/30 06:00:49;;;;;;;5.30;1.17;;;7.30;89.30;;;;;;5030186;28;20443;-72
2021/01/30 06:03:17;;;;;;;6.03;1.47;;;7.30;88.90;;;;;;5050326;28;20922;-73
2021/01/30 06:05:51;;;;;;;2.10;1.30;;;7.30;88.60;;;;;;5051631;28;20434;-71
2021/01/30 06:08:31;;;;;;;7.43;2.13;;;7.30;88.60;;;;;;5052833;28;20442;-71
2021/01/30 06:11:13;;;;;;;5.73;1.60;;;7.30;88.90;;;;;;5052548;28;20490;-71
2021/01/30 06:14:00;;;;;;;6.67;2.50;;;7.30;88.90;;;;;;5053209;28;20453;-70
2021/01/30 06:16:58;;;;;;;4.33;1.70;;;7.30;88.40;;;;;;5055277;28;20422;-72
2021/01/30 06:19:25;;;;;;;6.57;1.90;;;7.30;88.30;;;;;;5043125;28;20462;-72
2021/01/30 06:22:11;;;;;;;6.43;1.63;;;7.30;88.60;;;;;;5055001;28;20426;-72
2021/01/30 06:24:44;;;;;;;3.90;2.00;;;7.30;88.40;;;;;;5054041;28;20462;-71
2021/01/30 06:27:27;;;;;;;4.13;1.57;;;7.30;88.40;;;;;;5055339;28;20466;-71
2021/01/30 06:30:05;;;;;;;5.73;1.63;;;7.30;88.10;;;;;;5054477;28;20425;-70
2021/01/30 06:32:34;;;;;;;5.63;1.70;;;7.30;88.30;;;;;;5054817;28;20964;-72
2021/01/30 06:35:20;;;;;;;4.93;1.67;;;7.20;88.30;;;;;;5052022;28;20451;-72
2021/01/30 06:38:01;;;;;;;8.03;2.00;;;7.30;88.30;;;;;;5052369;28;20542;-71
2021/01/30 06:40:31;;;;;;;5.40;1.60;;;7.30;88.10;;;;;;5051983;28;21000;-71
2021/01/30 06:43:11;;;;;;;4.60;1.97;;;7.30;88.00;;;;;;5052153;28;20426;-72
2021/01/30 06:45:46;;;;;;;7.50;1.67;;;7.30;87.80;;;;;;5043374;28;20930;-70
2021/01/30 06:48:27;;;;;;;10.37;2.30;;;7.30;88.30;;;;;;5048700;28;20580;-71
2021/01/30 06:50:52;;;;;;;8.20;2.20;;;7.30;88.10;;;;;;5051499;28;20605;-71
2021/01/30 06:53:31;;;;;;;7.60;1.97;;;7.30;87.80;;;;;;5051800;28;20517;-72
2021/01/30 06:56:16;;;;;;;7.30;1.90;;;7.30;87.80;;;;;;5050899;28;20203;-71
2021/01/30 06:58:44;;;;;;;6.90;1.70;;;7.30;87.70;;;;;;5051722;28;20496;-70
2021/01/30 07:01:16;;;;;;;8.20;2.27;;;7.30;87.60;;;;;;5033342;28;20431;-71
2021/01/30 07:04:13;;;;;;;9.70;3.63;;;7.40;87.30;;;;;;5051860;28;20427;-72
2021/01/30 07:06:57;;;;;;;3.43;1.77;;;7.40;87.00;;;;;;5022748;28;20967;-71
2021/01/30 07:09:50;;;;;;;5.00;1.80;;;7.40;86.90;;;;;;5051873;28;20874;-70
2021/01/30 07:12:24;;;;;;;4.20;2.00;;;7.40;86.90;;;;;;5051578;28;21159;-70
2021/01/30 07:15:10;;;;;;;4.57;1.90;;;7.40;87.00;;;;;;5050629;28;20506;-71
2021/01/30 07:18:23;;;;;;;9.10;2.17;;;7.50;87.10;;;;;;5051631;28;20438;-72
2021/01/30 07:21:10;;;;;;;8.20;2.17;;;7.50;87.00;;;;;;5043719;28;20877;-72
2021/01/30 07:23:45;;;;;;;8.27;2.77;;;7.50;86.60;;;;;;5033919;28;20439;-70
2021/01/30 07:26:39;;;;;;;8.10;3.07;;;7.50;87.10;;;;;;5051109;28;20422;-72
2021/01/30 07:29:32;;;;;;;10.60;2.40;;;7.50;86.90;;;;;;5037881;28;20496;-71
2021/01/30 07:32:30;;;;;;;6.27;2.10;;;7.50;86.90;;;;;;5051739;28;20479;-72
2021/01/30 07:34:55;;;;;;;6.30;2.63;;;7.50;87.40;;;;;;5050508;28;20419;-70
2021/01/30 07:37:51;;;;;;;5.97;2.30;;;7.50;87.10;;;;;;5037620;28;21007;-71
2021/01/30 07:40:44;;;;;;;9.07;2.60;;;7.50;87.40;;;;;;5011380;28;20196;-71
2021/01/30 07:43:19;;;;;;;8.00;2.40;;;7.50;87.70;;;;;;5019946;28;20445;-72
2021/01/30 07:46:03;;;;;;;6.67;2.60;;;7.50;88.00;;;;;;5050808;28;20443;-72
2021/01/30 07:48:38;;;;;;;5.33;1.97;;;7.50;87.80;;;;;;5051507;28;20431;-72
2021/01/30 07:51:18;;;;;;;11.90;2.40;;;7.50;87.80;;;;;;5054117;28;20465;-71
2021/01/30 07:53:46;;;;;;;9.17;2.73;;;7.50;87.80;;;;;;5052748;28;20898;-73
2021/01/30 07:56:18;;;;;;;12.57;2.87;;;7.50;87.70;;;;;;5051750;28;20499;-71
2021/01/30 07:59:13;;;;;;;7.70;2.37;;;7.60;87.70;;;;;;5053530;28;20496;-74
2021/01/30 08:02:13;;;;;;;7.10;1.93;;;7.60;87.70;;;;;;5040889;28;20442;-72
2021/01/30 08:04:58;;;;;;;6.27;2.03;;;7.60;87.80;;;;;;4947803;28;20446;-72
2021/01/30 08:07:54;;;;;;;17.23;3.33;;;7.60;87.70;;;;;;5047432;28;20944;-72
2021/01/30 08:10:36;;;;;;;6.17;2.43;;;7.70;87.60;;;;;;5009340;28;20542;-73
2021/01/30 08:13:07;;;;;;;12.33;2.33;;;7.70;87.70;;;;;;5058431;28;20426;-71
2021/01/30 08:16:13;;;;;;;9.10;2.60;;;7.70;87.80;;;;;;5050467;28;20430;-72
2021/01/30 08:18:44;;;;;;;6.67;1.70;;;7.80;87.70;;;;;;5051914;28;20481;-71
2021/01/30 08:21:47;;;;;;;12.50;2.83;;;7.80;87.10;;;;;;5056922;28;20415;-73
2021/01/30 08:24:31;;;;;;;6.13;2.43;;;7.90;86.90;;;;;;5038193;28;20430;-72
2021/01/30 08:27:25;;;;;;;12.83;2.80;;;7.90;86.50;;;;;;5034883;28;21028;-73
2021/01/30 08:29:59;;;;;;;6.67;2.40;;;7.90;86.60;;;;;;5022026;28;20427;-73
2021/01/30 08:32:24;;;;;;;8.67;2.10;;;7.90;86.30;;;;;;5044527;28;20459;-74
2021/01/30 08:35:16;;;;;;;7.60;1.90;;;8.00;85.70;;;;;;5047147;28;20426;-71
2021/01/30 08:37:42;;;;;;;6.63;1.90;;;8.00;85.60;;;;;;5002942;28;20208;-71
2021/01/30 08:40:14;;;;;;;9.03;2.40;;;8.10;85.60;;;;;;5047760;28;20529;-70
2021/01/30 08:42:57;;;;;;;8.90;2.30;;;8.00;85.60;;;;;;5034192;28;20687;-71
2021/01/30 08:45:31;;;;;;;9.37;2.10;;;8.00;85.70;;;;;;5014006;28;20439;-72
2021/01/30 08:48:16;;;;;;;7.47;2.37;;;8.10;85.70;;;;;;5045877;28;20450;-72
2021/01/30 08:50:45;;;;;;;8.50;2.80;;;8.10;85.30;;;;;;5033732;28;20473;-72
2021/01/30 08:53:30;;;;;;;6.00;2.40;;;8.10;85.50;;;;;;5054083;28;20450;-72
2021/01/30 08:55:58;;;;;;;7.00;3.03;;;8.10;85.60;;;;;;5055987;28;20513;-72
2021/01/30 08:58:35;;;;;;;5.77;2.53;;;8.20;85.50;;;;;;5057404;28;20471;-72
2021/01/30 09:01:20;;;;;;;14.27;2.67;;;8.20;85.50;;;;;;5041778;28;20430;-74
2021/01/30 09:03:49;;;;;;;7.00;2.33;;;8.20;85.60;;;;;;5044295;28;20514;-71
2021/01/30 09:06:49;;;;;;;7.07;2.70;;;8.20;85.90;;;;;;5050722;28;20513;-73
2021/01/30 09:09:18;;;;;;;4.93;2.93;;;8.10;86.50;;;;;;5014070;28;20431;-72
2021/01/30 09:11:51;;;;;;;10.07;3.17;;;8.20;86.50;;;;;;5050246;28;20484;-73
2021/01/30 09:14:17;;;;;;;9.03;2.63;;;8.20;86.60;;;;;;5050724;28;20446;-72
2021/01/30 09:17:05;;;;;;;8.10;2.37;;;8.20;86.60;;;;;;5051840;28;20929;-72
2021/01/30 09:19:57;;;;;;;5.50;2.40;;;8.20;86.60;;;;;;5023238;28;20181;-72
2021/01/30 09:22:35;;;;;;;4.07;2.63;;;8.20;86.50;;;;;;5052070;28;20447;-71
2021/01/30 09:25:10;;;;;;;7.47;3.20;;;8.30;86.30;;;;;;5050995;28;20430;-71
2021/01/30 09:27:46;;;;;;;8.03;2.37;;;8.30;86.30;;;;;;5040784;28;20452;-71
2021/01/30 09:30:19;;;;;;;10.57;3.03;;;8.40;86.00;;;;;;5052674;28;20420;-72
2021/01/30 09:32:46;;;;;;;8.83;3.00;;;8.40;86.00;;;;;;5052668;28;20782;-72
2021/01/30 09:35:25;;;;;;;11.50;3.47;;;8.40;86.00;;;;;;5035990;28;20418;-73
2021/01/30 09:37:50;;;;;;;9.10;3.00;;;8.40;85.90;;;;;;5042064;28;20978;-72
2021/01/30 09:40:27;;;;;;;9.73;2.60;;;8.40;86.20;;;;;;5051656;28;20419;-71
2021/01/30 09:43:10;;;;;;;7.70;2.50;;;8.40;85.90;;;;;;5045947;28;20180;-77
2021/01/30 09:45:38;;;;;;;6.73;2.30;;;8.50;85.30;;;;;;5039203;28;20440;-76
2021/01/30 09:48:09;;;;;;;15.93;3.17;;;8.50;85.20;;;;;;5031221;28;20497;-76
2021/01/30 09:50:38;;;;;;;18.53;2.97;;;8.60;84.60;;;;;;5044454;28;20461;-74
2021/01/30 09:53:07;;;;;;;4.23;2.00;;;8.60;84.70;;;;;;5042537;28;21310;-74
2021/01/30 09:55:34;;;;;;;10.60;3.63;;;8.60;84.40;;;;;;5040935;28;20484;-76
2021/01/30 09:58:11;;;;;;;9.20;2.80;;;8.60;84.70;;;;;;5047004;28;20478;-76
2021/01/30 10:00:40;;;;;;;7.80;2.57;;;8.70;84.40;;;;;;5049050;28;20447;-76
2021/01/30 10:03:17;;;;;;;9.10;4.00;;;8.70;84.30;;;;;;5031037;28;20458;-76
2021/01/30 10:05:47;;;;;;;5.50;2.57;;;8.80;83.80;;;;;;5048720;28;20430;-75
2021/01/30 10:08:15;;;;;;;11.10;2.77;;;8.80;83.70;;;;;;5049065;28;20435;-74
2021/01/30 10:10:41;;;;;;;9.00;2.30;;;8.90;83.70;;;;;;5048535;28;20982;-76
2021/01/30 10:13:14;;;;;;;5.80;2.63;;;8.90;83.70;;;;;;5048996;28;20454;-77
2021/01/30 10:15:44;;;;;;;7.47;2.93;;;9.00;83.60;;;;;;5047727;28;20211;-76
2021/01/30 10:18:19;;;;;;;10.37;2.67;;;9.00;83.80;;;;;;5048339;28;20439;-75
2021/01/30 10:20:56;;;;;;;8.70;2.80;;;9.00;83.40;;;;;;5040360;28;20415;-75
2021/01/30 10:23:35;;;;;;;12.60;2.80;;;9.00;83.80;;;;;;5038920;28;20424;-76
2021/01/30 10:26:03;;;;;;;10.93;2.40;;;9.00;84.90;;;;;;5038946;28;20505;-77
2021/01/30 10:28:44;;;;;;;6.07;2.33;;;8.90;85.30;;;;;;5040419;28;20981;-75
2021/01/30 10:31:11;;;;;;;8.27;3.10;;;9.00;86.00;;;;;;5039405;28;20559;-76
2021/01/30 10:33:41;;;;;;;10.93;3.10;;;9.00;86.80;;;;;;5028061;28;20511;-72
2021/01/30 10:36:07;;;;;;;8.50;3.23;;;9.10;86.90;;;;;;5031747;28;20836;-72
2021/01/30 10:38:34;;;;;;;9.17;2.90;;;9.00;86.60;;;;;;5053357;28;20443;-71
2021/01/30 10:41:05;;;;;;;8.77;2.57;;;9.00;87.10;;;;;;5053937;28;20468;-70
2021/01/30 10:43:37;;;;;;;4.90;2.00;;;8.90;87.40;;;;;;5036590;28;20488;-73
2021/01/30 10:46:27;;;;;;;12.53;2.60;;;8.70;87.70;;;;;;5049164;28;20816;-73
2021/01/30 10:49:01;;;;;;;6.20;2.30;;;8.60;89.20;;;;;;5038928;28;20443;-71
2021/01/30 10:51:28;;;;;;;16.53;2.83;;;8.60;89.50;;;;;;5053228;28;20561;-72
2021/01/30 10:54:24;;;;;;;20.13;2.77;;;8.50;89.90;;;;;;5046586;28;20419;-71
2021/01/30 10:57:06;;;;;;;12.27;2.80;;;8.50;90.20;;;;;;5044527;28;20435;-72
2021/01/30 10:59:46;;;;;;;5.07;2.33;;;8.50;90.70;;;;;;5050090;28;20424;-71
2021/01/30 11:02:23;;;;;;;5.10;2.67;;;8.50;91.20;;;;;;5045952;28;20443;-72
2021/01/30 11:05:03;;;;;;;8.53;2.43;;;8.40;91.50;;;;;;5040089;28;20909;-71
2021/01/30 11:07:44;;;;;;;12.60;2.70;;;8.40;91.60;;;;;;5051817;28;20484;-71
2021/01/30 11:10:50;;;;;;;7.20;2.07;;;8.40;91.80;;;;;;5046156;28;20422;-71
2021/01/30 11:13:19;;;;;;;7.37;2.47;;;8.40;91.60;;;;;;5027985;28;20436;-72
2021/01/30 11:15:46;;;;;;;11.17;3.10;;;8.40;92.30;;;;;;5029163;28;20435;-72
2021/01/30 11:18:27;;;;;;;12.53;4.70;;;8.60;92.30;;;;;;5053936;28;20477;-72
2021/01/30 11:20:54;;;;;;;13.97;3.63;;;8.70;92.10;;;;;;5056806;28;20421;-73
2021/01/30 11:23:32;;;;;;;7.90;2.53;;;8.90;91.90;;;;;;5054914;28;20860;-72
2021/01/30 11:26:09;;;;;;;7.53;2.57;;;9.00;91.20;;;;;;5039905;28;20434;-72
2021/01/30 11:28:35;;;;;;;9.80;2.60;;;8.90;90.60;;;;;;5034587;28;20508;-72
2021/01/30 11:31:02;;;;;;;9.37;2.20;;;8.90;90.10;;;;;;5052571;28;21027;-72
2021/01/30 11:33:29;;;;;;;5.37;2.17;;;8.80;90.40;;;;;;5034225;28;20526;-72
2021/01/30 11:35:55;;;;;;;11.50;2.67;;;8.90;90.00;;;;;;5052207;28;20787;-71
2021/01/30 11:38:27;;;;;;;8.13;3.20;;;9.00;90.20;;;;;;5052733;28;20446;-71
2021/01/30 11:40:56;;;;;;;15.17;3.37;;;9.00;90.10;;;;;;5053176;28;20839;-73
2021/01/30 11:43:24;;;;;;;8.63;2.40;;;9.10;90.20;;;;;;5054598;28;20423;-72
2021/01/30 11:45:50;;;;;;;14.13;2.77;;;9.00;90.40;;;;;;5054982;28;20439;-72
2021/01/30 11:48:18;;;;;;;6.30;1.90;;;9.20;90.40;;;;;;5055576;28;20450;-72
2021/01/30 11:50:43;;;;;;;7.53;2.50;;;9.20;89.50;;;;;;5059893;28;20498;-72
2021/01/30 11:53:22;;;;;;;11.33;3.37;;;9.30;89.00;;;;;;5056027;28;20502;-72
2021/01/30 11:55:48;;;;;;;7.53;2.30;;;9.30;88.60;;;;;;5033750;28;20208;-72
2021/01/30 11:58:15;;;;;;;6.13;2.40;;;9.20;88.90;;;;;;5051818;28;20463;-72
2021/01/30 12:00:41;;;;;;;6.33;2.13;;;9.30;89.20;;;;;;5050655;28;20419;-71
2021/01/30 12:03:11;;;;;;;11.83;2.13;;;9.50;89.20;;;;;;5033668;28;20434;-71
2021/01/30 12:05:36;;;;;;;9.73;2.50;;;9.50;87.80;;;;;;5051451;28;20456;-72
2021/01/30 12:08:02;;;;;;;6.43;1.97;;;9.60;86.90;;;;;;5035848;28;20443;-72
2021/01/30 12:10:28;;;;;;;8.20;1.90;;;9.60;86.90;;;;;;5057122;28;20185;-72
2021/01/30 12:12:53;;;;;;;2.50;1.73;;;9.60;85.00;;;;;;5055816;28;20220;-73
2021/01/30 12:15:19;;;;;;;9.13;2.60;;;9.50;85.30;;;;;;5058664;28;20189;-72
2021/01/30 12:17:47;;;;;;;5.07;2.27;;;9.40;85.90;;;;;;5059559;28;20204;-71
2021/01/30 12:20:19;;;;;;;10.30;2.27;;;9.30;86.90;;;;;;5041735;28;20192;-72
2021/01/30 12:22:47;;;;;;;6.40;2.10;;;9.30;88.00;;;;;;5042213;28;20437;-73
2021/01/30 12:25:14;;;;;;;8.23;2.30;;;9.40;88.30;;;;;;5047794;28;20433;-72
2021/01/30 12:27:52;;;;;;;3.43;2.00;;;9.40;88.30;;;;;;5044562;28;20450;-73
2021/01/30 12:30:19;;;;;;;4.53;2.10;;;9.30;88.70;;;;;;5032778;28;20439;-71
2021/01/30 12:32:45;;;;;;;5.37;2.20;;;9.40;89.00;;;;;;5050497;28;20502;-71
2021/01/30 12:35:11;;;;;;;6.37;2.40;;;9.30;89.60;;;;;;5049020;28;20438;-72
2021/01/30 12:37:38;;;;;;;5.13;2.30;;;9.40;90.40;;;;;;5050638;28;20200;-72
2021/01/30 12:40:05;;;;;;;10.00;2.40;;;9.40;90.40;;;;;;5050634;28;20427;-72
2021/01/30 12:42:31;;;;;;;4.97;2.20;;;9.40;90.80;;;;;;5032619;28;20435;-71
2021/01/30 12:44:57;;;;;;;8.07;2.40;;;9.40;90.90;;;;;;5049844;28;20717;-72
2021/01/30 12:47:32;;;;;;;7.67;2.70;;;9.40;90.80;;;;;;5050817;28;20228;-72
2021/01/30 12:49:58;;;;;;;10.10;2.40;;;9.40;90.70;;;;;;5030566;28;20465;-71
2021/01/30 12:52:24;;;;;;;9.23;3.10;;;9.30;90.90;;;;;;5041126;28;20509;-72
2021/01/30 12:54:50;;;;;;;6.23;2.47;;;9.30;90.80;;;;;;5042817;28;20812;-71
2021/01/30 12:57:17;;;;;;;4.50;2.30;;;9.20;91.20;;;;;;5050525;28;20209;-71
2021/01/30 12:59:43;;;;;;;7.43;3.00;;;9.10;91.20;;;;;;5051031;28;20450;-72
2021/01/30 13:02:08;;;;;;;11.50;2.90;;;9.00;91.90;;;;;;5049989;28;21433;-72
2021/01/30 13:04:34;;;;;;;8.07;2.60;;;9.00;92.40;;;;;;5049350;28;20257;-71
2021/01/30 13:07:01;;;;;;;8.13;2.77;;;9.00;92.60;;;;;;5049865;28;20212;-72
2021/01/30 13:09:26;;;;;;;7.83;2.33;;;8.90;92.30;;;;;;5050534;28;20225;-72
2021/01/30 13:11:53;;;;;;;6.37;2.47;;;8.90;92.40;;;;;;5031229;28;20498;-72
2021/01/30 13:14:19;;;;;;;10.63;2.80;;;8.80;92.40;;;;;;5048174;28;20184;-71
2021/01/30 13:16:45;;;;;;;8.70;2.10;;;8.90;92.70;;;;;;5030225;28;20878;-72
2021/01/30 13:19:12;;;;;;;8.43;2.03;;;8.90;92.90;;;;;;5040963;28;20500;-71
2021/01/30 13:21:37;;;;;;;6.27;2.17;;;8.90;92.90;;;;;;5047976;28;20431;-72
2021/01/30 13:24:05;;;;;;;10.80;4.00;;;8.90;93.20;;;;;;5042519;28;20422;-73
2021/01/30 13:26:35;;;;;;;4.50;2.30;;;8.80;93.10;;;;;;5045847;28;20189;-72
2021/01/30 13:29:01;;;;;;;5.10;2.50;;;8.90;93.30;;;;;;5044609;28;20817;-71
2021/01/30 13:31:26;;;;;;;6.30;2.50;;;8.90;93.20;;;;;;5042131;28;20454;-72